Time;durP1;ratioP1;P1;durP2;ratioP2;P2;SDS_P1;SDS_P2;PMS_P1;PMS_P2;Temp;Humidity;BMP_temperature;BMP_pressure;BME280_temperature;BME280_humidity;BME280_pressure;Samples;Min_cycle;Max_cycle;Signal;HPM_P1;HPM_P2
2023/06/27 00:00:45;;;;;;;15.70;4.40;;;;;;;15.56;100.00;101857.94;5015125;28;20042;-68
2023/06/27 00:03:11;;;;;;;18.92;4.60;;;;;;;15.50;100.00;101845.50;5015199;28;20508;-68
2023/06/27 00:05:37;;;;;;;17.65;4.82;;;;;;;15.47;100.00;101857.94;5014827;28;20034;-69
2023/06/27 00:08:03;;;;;;;19.02;5.05;;;;;;;15.44;100.00;101844.63;5014938;28;20029;-68
2023/06/27 00:10:28;;;;;;;18.83;4.90;;;;;;;15.39;100.00;101849.97;5015074;28;20092;-68
2023/06/27 00:12:53;;;;;;;17.08;5.05;;;;;;;15.40;100.00;101850.84;5014791;28;20458;-68
2023/06/27 00:15:19;;;;;;;19.23;5.32;;;;;;;15.35;100.00;101850.84;5014737;28;20416;-68
2023/06/27 00:17:45;;;;;;;18.70;5.00;;;;;;;15.32;100.00;101849.06;5014949;28;20401;-68
2023/06/27 00:20:11;;;;;;;17.80;5.10;;;;;;;15.25;100.00;101847.28;5014668;28;20050;-68
2023/06/27 00:22:40;;;;;;;19.63;5.35;;;;;;;15.22;100.00;101846.38;5014753;28;20026;-69
2023/06/27 00:25:12;;;;;;;18.30;5.00;;;;;;;15.21;100.00;101855.25;5014697;28;20113;-68
2023/06/27 00:27:38;;;;;;;19.53;5.20;;;;;;;15.14;100.00;101854.34;5014495;28;20034;-68
2023/06/27 00:30:04;;;;;;;19.70;5.63;;;;;;;15.14;100.00;101854.34;5014406;28;20782;-68
2023/06/27 00:32:30;;;;;;;17.98;5.38;;;;;;;15.16;100.00;101852.59;5014624;28;20026;-69
2023/06/27 00:34:55;;;;;;;19.85;6.00;;;;;;;15.07;100.00;101845.50;5014350;28;20500;-68
2023/06/27 00:37:20;;;;;;;17.75;5.43;;;;;;;15.03;100.00;101851.69;5014169;28;20402;-68
2023/06/27 00:39:46;;;;;;;18.13;5.32;;;;;;;15.08;100.00;101849.03;5010435;28;20034;-68
2023/06/27 00:42:11;;;;;;;19.33;5.28;;;;;;;15.04;100.00;101842.78;5014288;28;20057;-68
2023/06/27 00:44:36;;;;;;;19.73;5.28;;;;;;;15.01;100.00;101849.91;5014643;28;20037;-69
2023/06/27 00:47:02;;;;;;;19.63;5.20;;;;;;;14.95;100.00;101842.78;5014250;28;20548;-63
2023/06/27 00:49:28;;;;;;;20.38;5.20;;;;;;;14.97;100.00;101849.03;5014100;28;20436;-61
2023/06/27 00:51:55;;;;;;;19.25;4.95;;;;;;;15.08;100.00;101851.69;5014283;28;20026;-65
2023/06/27 00:54:21;;;;;;;17.95;4.88;;;;;;;15.02;100.00;101849.03;5014112;28;20063;-63
2023/06/27 00:56:49;;;;;;;18.45;5.07;;;;;;;14.94;100.00;101852.56;5010047;28;20033;-60
2023/06/27 00:59:14;;;;;;;18.88;4.90;;;;;;;14.96;100.00;101861.44;5014110;28;20025;-60
2023/06/27 01:01:40;;;;;;;17.95;5.10;;;;;;;14.94;100.00;101863.22;5014175;28;20038;-61
2023/06/27 01:04:05;;;;;;;17.48;4.88;;;;;;;14.92;100.00;101856.09;5013848;28;20461;-60
2023/06/27 01:06:43;;;;;;;19.92;5.20;;;;;;;14.94;100.00;101865.88;5013847;28;20358;-62
2023/06/27 01:09:18;;;;;;;19.85;5.35;;;;;;;14.85;100.00;101867.59;5013962;28;20473;-61
2023/06/27 01:11:56;;;;;;;19.85;5.30;;;;;;;14.81;100.00;101864.94;5013730;28;20065;-64
2023/06/27 01:14:25;;;;;;;18.17;5.15;;;;;;;14.79;100.00;101861.41;5013559;28;20022;-64
2023/06/27 01:16:51;;;;;;;19.67;5.22;;;;;;;14.81;100.00;101859.63;5013571;28;20073;-63
2023/06/27 01:19:21;;;;;;;18.92;5.20;;;;;;;14.73;100.00;101852.50;5013971;28;20036;-65
2023/06/27 01:21:52;;;;;;;20.25;5.65;;;;;;;14.69;100.00;101859.56;5009979;28;20385;-65
2023/06/27 01:24:18;;;;;;;18.90;5.40;;;;;;;14.66;100.00;101856.03;5000748;28;20026;-64
2023/06/27 01:26:43;;;;;;;18.77;5.53;;;;;;;14.59;100.00;101861.28;5005089;28;20396;-65
2023/06/27 01:29:08;;;;;;;18.42;5.20;;;;;;;14.53;100.00;101857.72;5002988;28;20544;-64
2023/06/27 01:31:52;;;;;;;19.08;5.25;;;;;;;14.49;100.00;101859.47;5003570;28;20084;-64
2023/06/27 01:34:47;;;;;;;19.27;4.95;;;;;;;14.48;100.00;101863.00;5009697;28;20022;-62
2023/06/27 01:37:23;;;;;;;19.40;5.55;;;;;;;14.45;100.00;101865.66;5012923;28;20034;-64
2023/06/27 01:40:02;;;;;;;18.33;5.40;;;;;;;14.46;100.00;101856.81;5009532;28;20088;-62
2023/06/27 01:42:34;;;;;;;18.90;5.28;;;;;;;14.42;100.00;101863.00;5010813;28;20022;-64
2023/06/27 01:45:01;;;;;;;21.45;5.25;;;;;;;14.43;100.00;101857.69;5013382;28;20133;-61
2023/06/27 01:47:28;;;;;;;20.00;5.55;;;;;;;14.46;100.00;101856.81;5013172;28;20025;-65
2023/06/27 01:49:53;;;;;;;19.77;5.35;;;;;;;14.45;100.00;101852.38;5012334;28;20034;-64
2023/06/27 01:52:19;;;;;;;18.23;5.25;;;;;;;14.43;100.00;101855.03;5013451;28;20072;-65
2023/06/27 01:54:44;;;;;;;20.08;5.40;;;;;;;14.41;100.00;101851.44;5013121;28;20033;-64
2023/06/27 01:57:10;;;;;;;20.00;5.60;;;;;;;14.38;100.00;101845.25;5013029;28;20118;-65
2023/06/27 01:59:36;;;;;;;20.08;5.30;;;;;;;14.41;100.00;101851.44;5013201;28;20029;-64
2023/06/27 02:02:03;;;;;;;21.33;5.65;;;;;;;14.39;100.00;101852.34;5013005;28;20025;-64
2023/06/27 02:04:28;;;;;;;18.02;4.93;;;;;;;14.38;100.00;101850.56;5012879;28;20097;-65
2023/06/27 02:06:54;;;;;;;19.70;5.50;;;;;;;14.36;100.00;101844.31;5013344;28;20121;-64
2023/06/27 02:09:19;;;;;;;18.77;4.90;;;;;;;14.44;100.00;101847.91;5013018;28;20034;-67
2023/06/27 02:11:45;;;;;;;17.58;4.97;;;;;;;14.42;100.00;101842.59;5012821;28;20112;-61
2023/06/27 02:14:11;;;;;;;21.00;5.40;;;;;;;14.35;100.00;101840.78;5013063;28;20026;-65
2023/06/27 02:16:37;;;;;;;19.63;5.10;;;;;;;14.37;100.00;101839.03;5012688;28;20061;-68
2023/06/27 02:19:02;;;;;;;19.02;5.20;;;;;;;14.34;100.00;101836.34;5012797;28;20101;-64
2023/06/27 02:21:27;;;;;;;18.38;5.18;;;;;;;14.36;100.00;101839.00;5012973;28;20061;-66
2023/06/27 02:23:53;;;;;;;21.10;5.55;;;;;;;14.35;100.00;101831.94;5012757;28;20037;-67
2023/06/27 02:26:18;;;;;;;19.25;5.10;;;;;;;14.34;100.00;101835.47;5013160;28;20120;-66
2023/06/27 02:28:43;;;;;;;20.10;5.05;;;;;;;14.35;100.00;101834.59;5012780;28;20033;-66
2023/06/27 02:31:09;;;;;;;21.02;5.07;;;;;;;14.37;100.00;101838.13;5013009;28;20026;-65
2023/06/27 02:33:34;;;;;;;18.63;5.20;;;;;;;14.36;100.00;101845.22;5012866;28;20030;-67
2023/06/27 02:36:00;;;;;;;20.85;5.28;;;;;;;14.35;100.00;101829.28;5012668;28;20026;-67
2023/06/27 02:38:25;;;;;;;19.30;5.43;;;;;;;14.34;100.00;101832.81;5012652;28;20062;-67
2023/06/27 02:40:50;;;;;;;18.50;5.22;;;;;;;14.32;100.00;101829.25;5012809;28;20026;-68
2023/06/27 02:43:16;;;;;;;19.63;5.00;;;;;;;14.27;100.00;101821.22;5012527;28;20085;-68
2023/06/27 02:45:41;;;;;;;21.50;5.25;;;;;;;14.24;100.00;101824.78;5012432;28;20065;-65
2023/06/27 02:48:07;;;;;;;19.50;5.50;;;;;;;14.22;100.00;101821.22;5012708;28;20037;-67
2023/06/27 02:50:32;;;;;;;18.88;5.47;;;;;;;14.19;100.00;101831.84;5012845;28;20034;-68
2023/06/27 02:52:57;;;;;;;18.63;5.00;;;;;;;14.18;100.00;101832.72;5012491;28;20026;-64
2023/06/27 02:55:23;;;;;;;20.27;5.40;;;;;;;14.16;100.00;101828.28;4995169;28;20045;-67
2023/06/27 02:57:48;;;;;;;20.58;5.43;;;;;;;14.11;100.00;101821.19;5012716;28;20065;-67
2023/06/27 03:00:14;;;;;;;19.45;5.10;;;;;;;14.08;100.00;101823.81;5012588;28;20088;-66
2023/06/27 03:02:40;;;;;;;19.98;5.50;;;;;;;14.00;100.00;101822.88;5015857;28;20038;-68
2023/06/27 03:05:05;;;;;;;18.10;5.35;;;;;;;14.01;100.00;101830.00;5015890;28;20084;-65
2023/06/27 03:07:30;;;;;;;19.70;5.22;;;;;;;13.91;100.00;101834.34;5016283;28;20040;-67
2023/06/27 03:09:56;;;;;;;19.40;5.65;;;;;;;13.90;100.00;101844.97;5015970;28;20469;-67
2023/06/27 03:12:21;;;;;;;19.70;5.13;;;;;;;13.88;100.00;101829.03;5016011;28;20037;-65
2023/06/27 03:14:47;;;;;;;20.88;5.30;;;;;;;13.85;100.00;101829.00;5016077;28;20033;-68
2023/06/27 03:17:12;;;;;;;20.40;5.60;;;;;;;13.82;100.00;101836.97;5015635;28;20069;-66
2023/06/27 03:19:37;;;;;;;20.80;5.40;;;;;;;13.82;100.00;101846.69;5016015;28;20121;-67
2023/06/27 03:22:03;;;;;;;20.45;5.45;;;;;;;13.79;100.00;101839.59;5015900;28;20038;-67
2023/06/27 03:24:28;;;;;;;19.90;5.80;;;;;;;13.82;100.00;101836.97;5015721;28;20116;-67
2023/06/27 03:26:53;;;;;;;20.13;5.60;;;;;;;13.79;100.00;101839.59;5015665;28;20469;-68
2023/06/27 03:29:19;;;;;;;21.55;5.60;;;;;;;13.78;100.00;101835.16;5015935;28;20555;-68
2023/06/27 03:31:44;;;;;;;20.05;5.50;;;;;;;13.74;100.00;101825.38;5015538;28;20515;-68
2023/06/27 03:34:09;;;;;;;20.20;5.75;;;;;;;13.75;100.00;101843.09;5015675;28;20114;-68
2023/06/27 03:36:35;;;;;;;19.88;5.80;;;;;;;13.75;100.00;101835.13;5015490;28;20057;-68
2023/06/27 03:39:01;;;;;;;20.67;5.68;;;;;;;13.73;100.00;101840.44;4981595;28;20064;-68
2023/06/27 03:41:26;;;;;;;20.60;5.60;;;;;;;13.74;100.00;101844.84;5015603;28;20029;-68
2023/06/27 03:43:52;;;;;;;19.48;5.63;;;;;;;13.71;100.00;101839.53;5015366;28;20041;-68
2023/06/27 03:46:17;;;;;;;20.42;5.75;;;;;;;13.69;100.00;101838.63;5015158;28;20036;-68
2023/06/27 03:48:43;;;;;;;19.83;5.68;;;;;;;13.69;100.00;101835.06;5015513;28;20026;-68
2023/06/27 03:51:08;;;;;;;22.55;5.93;;;;;;;13.65;100.00;101838.63;5015295;28;20030;-68
2023/06/27 03:53:33;;;;;;;20.08;6.13;;;;;;;13.64;100.00;101844.78;5015170;28;20026;-69
2023/06/27 03:56:02;;;;;;;19.70;5.80;;;;;;;13.62;100.00;101854.53;5015587;28;20469;-68
2023/06/27 03:58:27;;;;;;;21.33;6.25;;;;;;;13.63;100.00;101843.91;5015043;28;20080;-68
2023/06/27 04:00:53;;;;;;;21.38;6.03;;;;;;;13.55;100.00;101851.81;5015065;28;20029;-68
2023/06/27 04:03:19;;;;;;;21.23;6.25;;;;;;;13.60;100.00;101852.75;5011243;28;20083;-68
2023/06/27 04:05:44;;;;;;;22.77;6.22;;;;;;;13.55;100.00;101845.59;5014771;28;20038;-68
2023/06/27 04:08:10;;;;;;;21.40;6.15;;;;;;;13.52;100.00;101845.59;5014851;28;20022;-66
2023/06/27 04:10:35;;;;;;;20.80;6.00;;;;;;;13.50;100.00;101847.31;5015044;28;20034;-61
2023/06/27 04:13:00;;;;;;;21.20;6.43;;;;;;;13.46;100.00;101841.13;5014329;28;20362;-67
2023/06/27 04:15:26;;;;;;;20.92;6.10;;;;;;;13.43;100.00;101841.97;5014850;28;20026;-64
2023/06/27 04:17:51;;;;;;;20.50;5.95;;;;;;;13.45;100.00;101849.94;5014738;28;20381;-64
2023/06/27 04:20:16;;;;;;;21.25;6.10;;;;;;;13.45;100.00;101847.28;5014663;28;20022;-63
2023/06/27 04:22:42;;;;;;;20.88;5.80;;;;;;;13.47;100.00;101840.25;5014819;28;20038;-62
2023/06/27 04:25:10;;;;;;;21.58;6.32;;;;;;;13.48;100.00;101846.44;5014539;28;20022;-62
2023/06/27 04:27:36;;;;;;;21.45;6.55;;;;;;;13.49;100.00;101848.22;5014457;28;20503;-61
2023/06/27 04:30:02;;;;;;;21.17;6.13;;;;;;;13.46;100.00;101846.44;5014759;28;20042;-67
2023/06/27 04:32:28;;;;;;;22.38;6.28;;;;;;;13.49;100.00;101849.09;5014455;28;20028;-67
2023/06/27 04:34:57;;;;;;;21.70;6.10;;;;;;;13.50;100.00;101849.97;5014394;28;20113;-68
2023/06/27 04:37:23;;;;;;;23.35;7.25;;;;;;;13.46;100.00;101849.09;5014637;28;20030;-66
2023/06/27 04:39:48;;;;;;;21.65;6.63;;;;;;;13.46;100.00;101853.50;5014305;28;20081;-67
2023/06/27 04:42:14;;;;;;;20.42;6.20;;;;;;;13.47;100.00;101853.53;5014328;28;20050;-67
2023/06/27 04:44:40;;;;;;;20.48;6.70;;;;;;;13.46;100.00;101859.72;4996978;28;20030;-62
2023/06/27 04:47:05;;;;;;;22.05;6.40;;;;;;;13.44;100.00;101856.16;5014120;28;20499;-65
2023/06/27 04:49:30;;;;;;;21.30;6.25;;;;;;;13.42;100.00;101857.91;5014426;28;20030;-64
2023/06/27 04:51:56;;;;;;;22.40;6.60;;;;;;;13.42;100.00;101856.13;5014270;28;20109;-67
2023/06/27 04:54:21;;;;;;;22.33;6.45;;;;;;;13.39;100.00;101861.41;5014134;28;20037;-64
2023/06/27 04:56:47;;;;;;;21.33;6.50;;;;;;;13.40;100.00;101862.31;5014017;28;20022;-61
2023/06/27 04:59:12;;;;;;;22.45;6.80;;;;;;;13.40;100.00;101862.31;5014443;28;20116;-61
2023/06/27 05:01:38;;;;;;;20.60;6.55;;;;;;;13.42;100.00;101869.41;5013946;28;20049;-61
2023/06/27 05:04:06;;;;;;;22.02;7.15;;;;;;;13.48;100.00;101865.91;5013868;28;20109;-62
2023/06/27 05:06:34;;;;;;;23.15;7.07;;;;;;;13.51;100.00;101860.63;5014327;28;20404;-64
2023/06/27 05:09:01;;;;;;;21.63;6.43;;;;;;;13.59;100.00;101864.25;5013756;28;20036;-62
2023/06/27 05:11:27;;;;;;;22.80;7.10;;;;;;;13.69;100.00;101866.94;5014023;28;20389;-65
2023/06/27 05:13:53;;;;;;;22.63;7.40;;;;;;;13.83;100.00;101867.06;5013964;28;20026;-64
2023/06/27 05:16:19;;;;;;;20.95;6.45;;;;;;;14.02;100.00;101873.41;5013366;28;20397;-63
2023/06/27 05:18:44;;;;;;;22.38;6.75;;;;;;;14.23;100.00;101870.00;5013657;28;20401;-61
2023/06/27 05:21:10;;;;;;;23.00;6.85;;;;;;;14.35;100.00;101870.03;5013877;28;20030;-62
2023/06/27 05:23:36;;;;;;;21.70;6.50;;;;;;;14.50;100.00;101861.25;5013484;28;20045;-61
2023/06/27 05:26:01;;;;;;;20.83;6.82;;;;;;;14.59;100.00;101871.94;5013706;28;20034;-65
2023/06/27 05:28:27;;;;;;;22.67;7.20;;;;;;;14.63;100.00;101868.44;5013699;28;20042;-65
2023/06/27 05:30:52;;;;;;;22.98;7.50;;;;;;;14.67;100.00;101868.44;5013500;28;20101;-61
2023/06/27 05:33:17;;;;;;;21.88;7.05;;;;;;;14.75;100.00;101864.03;5009794;28;20034;-68
2023/06/27 05:35:43;;;;;;;24.60;7.70;;;;;;;14.77;100.00;101870.25;5003572;28;20045;-64
2023/06/27 05:38:08;;;;;;;23.30;7.45;;;;;;;14.86;100.00;101872.06;5014143;28;20108;-70
2023/06/27 05:40:34;;;;;;;23.25;7.07;;;;;;;14.95;100.00;101872.06;5013519;28;20034;-70
2023/06/27 05:42:59;;;;;;;22.33;6.68;;;;;;;15.03;100.00;101867.66;5013228;28;20061;-67
2023/06/27 05:45:24;;;;;;;23.65;7.43;;;;;;;15.08;100.00;101865.00;4995531;28;20133;-69
2023/06/27 05:47:50;;;;;;;24.83;7.70;;;;;;;15.17;100.00;101867.66;5013339;28;20557;-69
2023/06/27 05:50:15;;;;;;;23.15;7.50;;;;;;;15.20;100.00;101859.69;5012656;28;20104;-70
2023/06/27 05:52:41;;;;;;;22.65;7.50;;;;;;;15.31;100.00;101857.94;5013137;28;20049;-69
2023/06/27 05:55:06;;;;;;;23.33;7.70;;;;;;;15.42;100.00;101857.03;5013197;28;20069;-70
2023/06/27 05:57:32;;;;;;;24.40;8.05;;;;;;;15.50;100.00;101864.16;5013250;28;20034;-68
2023/06/27 05:59:57;;;;;;;24.00;7.93;;;;;;;15.54;100.00;101865.06;5012954;28;20080;-67
2023/06/27 06:02:22;;;;;;;24.55;7.80;;;;;;;15.63;100.00;101857.03;4998940;28;20381;-67
2023/06/27 06:04:48;;;;;;;23.13;7.72;;;;;;;15.63;100.00;101865.03;5013072;28;20070;-69
2023/06/27 06:07:14;;;;;;;24.63;8.50;;;;;;;15.65;100.00;101857.94;5013076;28;20088;-68
2023/06/27 06:09:39;;;;;;;23.25;7.75;;;;;;;15.67;100.00;101860.63;5012866;28;20030;-69
2023/06/27 06:12:05;;;;;;;22.30;8.15;;;;;;;15.71;100.00;101866.81;5012932;28;20384;-69
2023/06/27 06:14:31;;;;;;;24.27;8.40;;;;;;;15.80;100.00;101856.16;5012585;28;20030;-68
2023/06/27 06:16:56;;;;;;;23.10;8.18;;;;;;;15.91;100.00;101858.84;5012505;28;20138;-69
2023/06/27 06:19:21;;;;;;;24.02;8.10;;;;;;;15.98;100.00;101849.94;5012680;28;20033;-68
2023/06/27 06:21:47;;;;;;;24.67;8.23;;;;;;;16.11;100.00;101865.00;5012849;28;20080;-67
2023/06/27 06:24:14;;;;;;;23.42;8.07;;;;;;;16.16;100.00;101860.56;5012722;28;20144;-65
2023/06/27 06:26:39;;;;;;;22.90;8.07;;;;;;;16.28;100.00;101867.63;5012306;28;20034;-61
2023/06/27 06:29:06;;;;;;;23.85;8.00;;;;;;;16.41;100.00;101867.56;5012875;28;20022;-61
2023/06/27 06:31:31;;;;;;;22.88;8.25;;;;;;;16.51;100.00;101862.22;5012746;28;20030;-69
2023/06/27 06:33:57;;;;;;;25.05;8.27;;;;;;;16.64;100.00;101865.69;5012299;28;20073;-61
2023/06/27 06:36:23;;;;;;;22.67;8.10;;;;;;;16.76;100.00;101867.44;5014295;28;20037;-61
2023/06/27 06:38:49;;;;;;;24.83;7.88;;;;;;;16.84;100.00;101876.28;5016030;28;20026;-61
2023/06/27 06:41:14;;;;;;;23.48;7.72;;;;;;;16.89;100.00;101873.59;5016230;28;20040;-62
2023/06/27 06:43:39;;;;;;;23.33;7.50;;;;;;;16.92;100.00;101878.97;5016503;28;20393;-61
2023/06/27 06:46:05;;;;;;;24.20;7.78;;;;;;;16.96;100.00;101880.69;5016220;28;20084;-61
2023/06/27 06:48:30;;;;;;;23.35;7.60;;;;;;;17.00;100.00;101893.13;5016408;28;20026;-66
2023/06/27 06:50:56;;;;;;;23.17;8.02;;;;;;;17.01;100.00;101888.69;5015985;28;20030;-61
2023/06/27 06:53:22;;;;;;;22.80;7.97;;;;;;;17.05;100.00;101875.31;5016179;28;20068;-62
2023/06/27 06:55:47;;;;;;;23.00;8.20;;;;;;;17.19;100.00;101887.69;5016521;28;20026;-61
2023/06/27 06:58:13;;;;;;;25.27;8.45;;;;;;;17.26;100.00;101889.44;5015937;28;20124;-60
2023/06/27 07:00:38;;;;;;;25.52;8.00;;;;;;;17.31;100.00;101882.25;5015943;28;20057;-60
2023/06/27 07:03:08;;;;;;;23.92;8.50;;;;;;;17.41;100.00;101883.94;5016034;28;20046;-60
2023/06/27 07:05:34;;;;;;;23.17;8.48;;;;;;;17.56;100.00;101892.75;5015829;28;20034;-60
2023/06/27 07:07:59;;;;;;;24.42;8.63;;;;;;;17.66;100.00;101889.09;5015922;28;20076;-63
2023/06/27 07:10:25;;;;;;;23.08;8.05;;;;;;;17.71;100.00;101884.59;5016038;28;20093;-60
2023/06/27 07:12:50;;;;;;;22.65;8.10;;;;;;;17.86;100.00;101883.56;5015465;28;20084;-62
2023/06/27 07:15:17;;;;;;;23.00;8.50;;;;;;;18.00;100.00;101885.25;4998180;28;20120;-61
2023/06/27 07:17:42;;;;;;;23.38;7.70;;;;;;;18.23;100.00;101887.69;5015893;28;20038;-60
2023/06/27 07:20:08;;;;;;;23.25;8.18;;;;;;;18.29;100.00;101890.31;5016040;28;20487;-68
2023/06/27 07:22:34;;;;;;;23.23;7.78;;;;;;;18.41;100.00;101891.97;5015627;28;20061;-67
2023/06/27 07:24:59;;;;;;;20.90;7.78;;;;;;;18.65;100.00;101890.75;4997893;28;20481;-67
2023/06/27 07:27:25;;;;;;;20.13;6.10;;;;;;;18.92;100.00;101892.22;5015822;28;20042;-66
2023/06/27 07:29:50;;;;;;;19.95;5.72;;;;;;;19.07;100.00;101892.91;5015584;28;20424;-67
2023/06/27 07:32:15;;;;;;;21.35;5.90;;;;;;;19.35;100.00;101893.38;5015729;28;20026;-69
2023/06/27 07:34:41;;;;;;;20.00;5.40;;;;;;;19.75;100.00;101881.13;5015630;28;20029;-65
2023/06/27 07:37:07;;;;;;;19.42;5.65;;;;;;;20.20;100.00;101881.22;5015078;28;20100;-65
2023/06/27 07:39:32;;;;;;;20.42;5.93;;;;;;;20.53;100.00;101874.28;5015423;28;20038;-61
2023/06/27 07:41:58;;;;;;;19.25;4.95;;;;;;;20.52;100.00;101880.56;5014973;28;20061;-62
2023/06/27 07:44:24;;;;;;;17.20;4.35;;;;;;;20.52;98.29;101885.94;5015071;28;20396;-61
2023/06/27 07:46:50;;;;;;;19.45;4.55;;;;;;;20.61;96.07;101886.66;5010632;28;20041;-63
2023/06/27 07:49:15;;;;;;;16.95;4.32;;;;;;;20.66;96.73;101893.75;5013866;28;20030;-61
2023/06/27 07:51:41;;;;;;;15.63;4.00;;;;;;;20.64;95.26;101881.22;5015435;28;20033;-67
2023/06/27 07:54:07;;;;;;;17.45;4.32;;;;;;;20.65;100.00;101881.19;5015069;28;20041;-63
2023/06/27 07:56:32;;;;;;;17.13;4.50;;;;;;;20.59;96.87;101884.00;5014932;28;20117;-65
2023/06/27 07:58:59;;;;;;;20.25;4.38;;;;;;;20.62;100.00;101880.34;5015015;28;20037;-67
2023/06/27 08:01:24;;;;;;;17.83;4.25;;;;;;;20.65;99.76;101883.88;5014633;28;20042;-66
2023/06/27 08:03:49;;;;;;;18.08;4.40;;;;;;;20.79;94.65;101880.91;4997296;28;20025;-66
2023/06/27 08:06:15;;;;;;;21.63;4.47;;;;;;;21.07;92.65;101886.56;5014844;28;20078;-67
2023/06/27 08:08:40;;;;;;;16.85;3.70;;;;;;;21.29;81.01;101887.84;5014731;28;20049;-68
2023/06/27 08:11:05;;;;;;;16.85;3.70;;;;;;;21.25;74.42;101878.97;5014824;28;20112;-66
2023/06/27 08:13:31;;;;;;;17.35;3.97;;;;;;;21.26;76.47;101880.75;5014830;28;20097;-68
2023/06/27 08:15:56;;;;;;;16.17;3.30;;;;;;;21.20;70.67;101883.56;5014533;28;20096;-65
2023/06/27 08:18:22;;;;;;;10.52;2.80;;;;;;;21.09;66.55;101877.59;5014640;28;20117;-61
2023/06/27 08:20:47;;;;;;;13.95;3.40;;;;;;;21.17;77.06;101881.84;5014848;28;20436;-68
2023/06/27 08:23:12;;;;;;;15.88;3.30;;;;;;;21.32;71.47;101882.38;5014644;28;20370;-68
2023/06/27 08:25:38;;;;;;;16.67;3.38;;;;;;;21.44;71.95;101871.34;5015035;28;20048;-68
2023/06/27 08:28:03;;;;;;;15.93;3.47;;;;;;;21.50;70.73;101875.69;5014626;28;20477;-68
2023/06/27 08:30:29;;;;;;;14.95;3.13;;;;;;;21.61;66.66;101875.44;5014490;28;20030;-69
2023/06/27 08:32:56;;;;;;;16.55;3.33;;;;;;;21.56;67.24;101884.50;5014927;28;20037;-69
2023/06/27 08:35:21;;;;;;;14.77;3.35;;;;;;;21.67;68.20;101881.56;5014688;28;20033;-70
2023/06/27 08:37:46;;;;;;;16.20;3.25;;;;;;;21.99;66.17;101871.75;5014630;28;20485;-69
2023/06/27 08:40:25;;;;;;;14.23;3.30;;;;;;;22.29;68.62;101870.00;5014557;28;20116;-70
2023/06/27 08:42:51;;;;;;;14.77;3.20;;;;;;;22.37;65.00;101874.31;5014446;28;20041;-69
2023/06/27 08:45:16;;;;;;;14.63;3.20;;;;;;;22.40;63.30;101879.63;5014422;28;20030;-70
2023/06/27 08:47:44;;;;;;;14.52;3.40;;;;;;;22.29;62.95;101874.50;5014465;28;20080;-69
2023/06/27 08:50:13;;;;;;;14.35;3.38;;;;;;;22.16;65.45;101873.94;5014469;28;20109;-69
2023/06/27 08:52:43;;;;;;;14.07;3.20;;;;;;;22.13;63.54;101867.78;5014130;28;20113;-67
2023/06/27 08:55:35;;;;;;;13.88;3.20;;;;;;;21.93;65.01;101866.50;5014055;28;20072;-68
2023/06/27 08:58:04;;;;;;;14.70;3.20;;;;;;;21.72;63.65;101868.84;4995241;28;20041;-68
2023/06/27 09:00:30;;;;;;;12.70;3.10;;;;;;;21.55;65.80;101866.59;5002786;28;20022;-66
2023/06/27 09:02:56;;;;;;;11.52;3.15;;;;;;;21.48;65.68;101864.97;5005074;28;20026;-68
2023/06/27 09:05:21;;;;;;;16.25;3.30;;;;;;;21.27;67.93;101861.00;5003883;28;20473;-66
2023/06/27 09:07:48;;;;;;;19.42;3.50;;;;;;;21.16;71.57;101863.94;5003823;28;20038;-63
2023/06/27 09:10:15;;;;;;;15.52;3.22;;;;;;;21.24;71.57;101875.38;5004566;28;20061;-66
2023/06/27 09:12:42;;;;;;;15.57;3.20;;;;;;;21.40;71.10;101866.94;5002593;28;20037;-68
2023/06/27 09:15:10;;;;;;;11.35;2.90;;;;;;;21.51;67.37;101866.69;5005485;28;20025;-66
2023/06/27 09:17:35;;;;;;;11.23;2.72;;;;;;;21.61;68.48;101872.75;4986455;28;20437;-67
2023/06/27 09:20:00;;;;;;;16.75;3.30;;;;;;;21.76;68.27;101869.66;4968490;28;20030;-66
2023/06/27 09:22:26;;;;;;;14.02;3.10;;;;;;;22.03;67.83;101864.44;4983509;28;20038;-66
2023/06/27 09:25:20;;;;;;;11.65;2.90;;;;;;;22.06;63.65;101867.06;4967133;28;20039;-67
2023/06/27 09:27:46;;;;;;;10.52;2.63;;;;;;;22.02;60.14;101860.88;4991944;28;20037;-64
2023/06/27 09:30:12;;;;;;;13.27;2.72;;;;;;;22.07;62.62;101864.31;4993729;28;20031;-68
2023/06/27 09:32:57;;;;;;;15.73;3.28;;;;;;;22.54;62.82;101869.31;4993888;28;20034;-67
2023/06/27 09:35:23;;;;;;;12.07;2.70;;;;;;;23.10;59.33;101875.69;4990896;28;20434;-68
2023/06/27 09:37:49;;;;;;;8.10;2.50;;;;;;;23.56;55.80;101866.13;4982234;28;20027;-66
2023/06/27 09:40:19;;;;;;;17.08;3.20;;;;;;;23.86;55.67;101868.72;4989696;28;20433;-68
2023/06/27 09:42:54;;;;;;;9.45;2.47;;;;;;;24.28;51.42;101875.34;4989226;28;20057;-67
2023/06/27 09:45:20;;;;;;;10.95;2.60;;;;;;;24.27;49.35;101868.16;4989964;28;20033;-66
2023/06/27 09:47:50;;;;;;;10.88;2.47;;;;;;;24.03;50.30;101876.22;4989615;28;20077;-68
2023/06/27 09:50:15;;;;;;;10.55;2.53;;;;;;;24.13;50.09;101880.34;4989605;28;20065;-68
2023/06/27 09:52:48;;;;;;;8.88;2.40;;;;;;;24.28;48.37;101880.72;4993768;28;20054;-66
2023/06/27 09:55:20;;;;;;;11.00;2.30;;;;;;;24.25;47.80;101880.84;4993946;28;20351;-65
2023/06/27 09:57:47;;;;;;;10.90;2.35;;;;;;;24.45;47.37;101880.97;4989570;28;20030;-67
2023/06/27 10:00:13;;;;;;;12.55;2.40;;;;;;;24.80;46.14;101878.78;4993380;28;20030;-65
2023/06/27 10:02:39;;;;;;;10.95;2.30;;;;;;;25.17;44.19;101881.81;4993776;28;20030;-65
2023/06/27 10:05:04;;;;;;;8.40;2.30;;;;;;;25.17;41.96;101879.13;4993396;28;20042;-66
2023/06/27 10:07:34;;;;;;;9.30;2.30;;;;;;;24.96;44.08;101870.94;4993370;28;20035;-66
2023/06/27 10:09:59;;;;;;;8.85;2.20;;;;;;;24.61;42.19;101877.72;4993858;28;20113;-67
2023/06/27 10:12:25;;;;;;;9.65;2.40;;;;;;;24.69;43.78;101876.47;4992794;28;20512;-67
2023/06/27 10:14:50;;;;;;;7.68;2.10;;;;;;;25.93;42.82;101871.41;4993294;28;20390;-67
2023/06/27 10:17:19;;;;;;;7.75;2.20;;;;;;;27.31;39.19;101879.50;5006323;28;20409;-68
2023/06/27 10:19:45;;;;;;;7.68;2.08;;;;;;;27.68;37.04;101876.78;5006001;28;20033;-68
2023/06/27 10:22:15;;;;;;;10.82;2.45;;;;;;;26.52;38.37;101876.91;5003106;28;20519;-67
2023/06/27 10:24:42;;;;;;;9.18;2.40;;;;;;;25.82;39.56;101882.75;4999806;28;20499;-66
2023/06/27 10:27:09;;;;;;;10.18;2.33;;;;;;;25.73;41.47;101885.81;5004732;28;20065;-66
2023/06/27 10:29:40;;;;;;;9.07;2.40;;;;;;;27.05;40.24;101878.94;5012718;28;20041;-68
2023/06/27 10:32:08;;;;;;;8.35;2.17;;;;;;;27.81;36.75;101880.59;5012986;28;20062;-67
2023/06/27 10:34:41;;;;;;;12.57;2.40;;;;;;;27.37;37.41;101881.91;5012661;28;20030;-66
2023/06/27 10:37:26;;;;;;;9.93;2.20;;;;;;;26.79;39.62;101894.66;4995093;28;20498;-65
2023/06/27 10:39:55;;;;;;;9.88;2.20;;;;;;;25.51;40.55;101881.34;5009677;28;20461;-63
2023/06/27 10:42:21;;;;;;;13.02;2.78;;;;;;;26.73;39.21;101877.78;5012665;28;20109;-68
2023/06/27 10:45:09;;;;;;;8.70;2.30;;;;;;;26.54;38.37;101875.03;4995176;28;20125;-66
2023/06/27 10:47:44;;;;;;;10.70;2.50;;;;;;;25.49;39.81;101871.53;5011556;28;20042;-68
2023/06/27 10:50:20;;;;;;;5.28;2.10;;;;;;;26.09;39.29;101874.34;5012577;28;20503;-67
2023/06/27 10:53:05;;;;;;;7.43;2.20;;;;;;;27.06;36.63;101886.13;5007928;28;20354;-61
2023/06/27 10:55:32;;;;;;;8.30;2.08;;;;;;;27.86;35.06;101869.47;5006065;28;20117;-61
2023/06/27 10:58:17;;;;;;;7.25;1.98;;;;;;;28.17;34.19;101871.50;5012425;28;20037;-61
2023/06/27 11:00:45;;;;;;;8.38;2.00;;;;;;;28.48;32.78;101862.56;5008091;28;20477;-60
2023/06/27 11:03:10;;;;;;;8.63;2.08;;;;;;;29.35;33.16;101871.28;5012674;28;20388;-62
2023/06/27 11:05:40;;;;;;;8.98;1.95;;;;;;;29.70;30.98;101863.72;5012103;28;20026;-65
2023/06/27 11:08:09;;;;;;;6.45;2.20;;;;;;;29.73;31.09;101868.97;5008418;28;20112;-61
2023/06/27 11:10:36;;;;;;;8.10;2.10;;;;;;;30.36;30.28;101882.44;5012507;28;20029;-61